createdAt,value
2018-08-09T00:03:09.136Z,99.90
2018-08-09T00:08:12.796Z,99.90
2018-08-09T00:13:16.187Z,99.90
2018-08-09T00:18:19.651Z,99.90
2018-08-09T00:23:23.184Z,99.90
2018-08-09T00:28:49.377Z,99.90
2018-08-09T01:07:41.499Z,99.90
2018-08-09T01:18:33.562Z,99.90
2018-08-09T01:23:41.048Z,99.90
2018-08-09T01:28:45.088Z,99.90
2018-08-09T01:39:01.886Z,99.90
2018-08-09T01:44:07.179Z,99.90
2018-08-09T01:49:10.926Z,99.90
2018-08-09T01:54:14.444Z,99.90
2018-08-09T01:59:24.962Z,99.90
2018-08-09T02:04:28.465Z,99.90
2018-08-09T02:09:34.057Z,99.90
2018-08-09T02:14:37.573Z,99.90
2018-08-09T02:19:41.185Z,99.90
2018-08-09T02:24:44.660Z,99.90
2018-08-09T02:29:48.212Z,99.90
2018-08-09T02:34:51.676Z,99.90
2018-08-09T02:39:55.224Z,99.90
2018-08-09T02:44:59.869Z,99.90
2018-08-09T02:50:04.818Z,99.90
2018-08-09T02:55:08.379Z,99.90
2018-08-09T03:00:11.979Z,99.90
2018-08-09T03:05:15.507Z,99.90
2018-08-09T03:10:18.905Z,99.90
2018-08-09T03:15:22.370Z,99.90
2018-08-09T03:20:25.872Z,99.90
2018-08-09T03:25:31.394Z,99.90
2018-08-09T03:30:35.979Z,99.90
2018-08-09T03:35:40.295Z,99.90
2018-08-09T03:40:43.915Z,99.90
2018-08-09T03:45:47.309Z,99.90
2018-08-09T03:50:50.687Z,99.90
2018-08-09T03:55:54.205Z,99.90
2018-08-09T04:00:58.498Z,99.90
2018-08-09T04:11:33.547Z,99.90
2018-08-09T04:16:40.957Z,99.90
2018-08-09T04:21:44.684Z,99.90
2018-08-09T04:26:48.226Z,99.90
2018-08-09T04:31:52.697Z,99.90
2018-08-09T04:36:58.722Z,99.90
2018-08-09T04:42:02.250Z,99.90
2018-08-09T04:47:06.251Z,99.90
2018-08-09T04:52:09.778Z,99.90
2018-08-09T04:57:13.388Z,99.90
2018-08-09T05:02:16.904Z,99.90
2018-08-09T05:07:20.513Z,99.90
2018-08-09T05:12:24.202Z,99.90
2018-08-09T05:17:28.018Z,99.90
2018-08-09T05:22:31.747Z,99.90
2018-08-09T05:27:35.670Z,99.90
2018-08-09T05:32:39.187Z,99.90
2018-08-09T05:37:43.048Z,99.90
2018-08-09T05:42:46.928Z,99.90
2018-08-09T05:47:50.493Z,99.90
2018-08-09T05:52:54.083Z,99.90
2018-08-09T05:57:57.629Z,99.90
2018-08-09T06:03:01.056Z,99.90
2018-08-09T06:08:04.670Z,99.90
2018-08-09T06:13:08.904Z,99.90
2018-08-09T06:18:22.712Z,99.90
2018-08-09T06:23:26.165Z,99.90
2018-08-09T06:28:29.708Z,99.90
2018-08-09T06:33:33.311Z,99.90
2018-08-09T06:38:37.805Z,99.90
2018-08-09T06:43:41.321Z,99.90
2018-08-09T06:48:46.743Z,99.90
2018-08-09T06:54:00.490Z,99.90
2018-08-09T06:59:05.003Z,99.90
2018-08-09T07:04:11.968Z,99.90
2018-08-09T07:09:15.492Z,99.90
2018-08-09T07:14:22.504Z,99.90
2018-08-09T07:19:31.856Z,99.90
2018-08-09T07:24:36.429Z,99.90
2018-08-09T07:29:39.927Z,99.90
2018-08-09T07:34:55.401Z,99.90
2018-08-09T07:45:40.902Z,99.90
2018-08-09T07:50:44.273Z,99.90
2018-08-09T07:55:47.784Z,99.90
2018-08-09T08:00:51.332Z,99.00
2018-08-09T08:05:54.988Z,97.60
2018-08-09T08:10:58.496Z,96.30
2018-08-09T08:16:02.055Z,95.60
2018-08-09T08:21:07.513Z,94.10
2018-08-09T08:26:11.133Z,93.40
2018-08-09T08:31:14.590Z,91.00
2018-08-09T08:36:25.096Z,90.20
2018-08-09T08:41:53.008Z,88.60
2018-08-09T08:46:56.388Z,86.50
2018-08-09T08:52:00.920Z,83.80
2018-08-09T08:57:04.433Z,84.30
2018-08-09T09:02:07.958Z,81.60
2018-08-09T09:07:11.611Z,79.50
2018-08-09T09:12:15.125Z,79.50
2018-08-09T09:17:18.798Z,77.90
2018-08-09T09:22:23.439Z,77.40
2018-08-09T09:27:26.938Z,76.70
2018-08-09T09:32:31.435Z,76.00
2018-08-09T09:37:38.448Z,77.20
2018-08-09T09:42:42.549Z,77.40
2018-08-09T09:47:46.123Z,76.80
2018-08-09T09:52:49.945Z,76.90
2018-08-09T09:57:53.432Z,76.00
2018-08-09T10:02:56.976Z,76.70
2018-08-09T10:08:00.456Z,75.50
2018-08-09T10:13:03.985Z,75.20
2018-08-09T10:18:07.498Z,74.70
2018-08-09T10:23:10.938Z,76.50
2018-08-09T10:28:14.969Z,73.50
2018-08-09T10:33:31.279Z,71.80
2018-08-09T10:38:36.208Z,69.90
2018-08-09T10:43:41.170Z,68.60
2018-08-09T10:48:44.771Z,68.10
2018-08-09T10:53:48.452Z,68.70
2018-08-09T10:58:57.489Z,67.30
2018-08-09T11:09:30.166Z,64.40
2018-08-09T11:14:33.681Z,62.50
2018-08-09T11:19:37.454Z,60.90
2018-08-09T11:24:42.488Z,59.60
2018-08-09T11:29:46.239Z,58.50
2018-08-09T11:34:50.059Z,58.90
2018-08-09T11:39:54.293Z,58.00
2018-08-09T11:44:58.589Z,56.60
2018-08-09T11:50:02.244Z,56.00
2018-08-09T11:55:05.875Z,55.00
2018-08-09T12:00:09.402Z,54.70
2018-08-09T12:05:12.996Z,53.50
2018-08-09T12:10:16.523Z,52.60
2018-08-09T12:15:21.248Z,52.50
2018-08-09T12:20:24.613Z,52.00
2018-08-09T12:25:28.242Z,52.10
2018-08-09T12:30:31.632Z,51.50
2018-08-09T12:35:35.053Z,51.00
2018-08-09T12:40:38.416Z,50.30
2018-08-09T12:45:42.937Z,50.60
2018-08-09T12:50:46.500Z,51.20
2018-08-09T12:55:49.904Z,51.40
2018-08-09T13:00:53.251Z,51.40
2018-08-09T13:05:56.683Z,51.50
2018-08-09T13:11:01.173Z,52.30
2018-08-09T13:16:05.737Z,53.40
2018-08-09T13:21:09.111Z,53.60
2018-08-09T13:26:12.473Z,54.50
2018-08-09T13:31:15.964Z,55.50
2018-08-09T13:45:56.948Z,62.40
2018-08-09T13:51:00.361Z,94.30
2018-08-09T13:56:04.267Z,99.90
2018-08-09T14:01:10.008Z,99.90
2018-08-09T14:06:14.265Z,99.90
2018-08-09T14:11:18.629Z,99.90
2018-08-09T14:16:23.289Z,99.90
2018-08-09T14:21:26.840Z,99.90
2018-08-09T14:26:31.340Z,99.90
2018-08-09T14:31:35.107Z,99.90
2018-08-09T14:36:39.621Z,99.90
2018-08-09T14:41:44.088Z,99.90
2018-08-09T14:46:47.519Z,99.90
2018-08-09T14:51:50.930Z,99.90
2018-08-09T14:56:54.436Z,99.90
2018-08-09T15:01:58.818Z,99.90
2018-08-09T15:07:02.193Z,99.90
2018-08-09T15:12:05.752Z,99.90
2018-08-09T15:17:10.759Z,99.90
2018-08-09T15:22:15.184Z,99.90
2018-08-09T15:27:18.885Z,99.90
2018-08-09T15:32:22.485Z,99.90
2018-08-09T15:37:27.152Z,99.90
2018-08-09T15:42:31.792Z,99.90
2018-08-09T15:47:36.223Z,99.90
2018-08-09T15:52:39.867Z,99.90
2018-08-09T15:57:44.648Z,99.90
2018-08-09T16:02:48.379Z,99.90
2018-08-09T16:07:52.997Z,99.90
2018-08-09T16:12:56.734Z,99.90
2018-08-09T16:18:00.328Z,99.90
2018-08-09T16:23:04.990Z,99.90
2018-08-09T16:28:08.497Z,99.90
2018-08-09T16:33:12.034Z,99.90
2018-08-09T16:38:16.817Z,99.90
2018-08-09T16:43:20.389Z,99.90
2018-08-09T16:48:23.903Z,99.90
2018-08-09T16:53:32.756Z,99.90
2018-08-09T16:58:36.815Z,99.90
2018-08-09T17:03:42.454Z,99.90
2018-08-09T17:08:49.593Z,99.90
2018-08-09T17:13:55.100Z,99.90
2018-08-09T17:19:01.324Z,99.90
2018-08-09T17:24:05.555Z,99.90
2018-08-09T17:29:12.826Z,99.90
2018-08-09T17:34:16.488Z,99.90
2018-08-09T17:39:20.512Z,99.90
2018-08-09T17:44:24.185Z,99.90
2018-08-09T17:49:27.699Z,99.90
2018-08-09T17:54:31.238Z,99.90
2018-08-09T17:59:34.819Z,99.90
2018-08-09T18:04:38.317Z,99.90
2018-08-09T18:09:41.810Z,99.90
2018-08-09T18:14:45.909Z,99.90
2018-08-09T18:19:49.459Z,99.90
2018-08-09T18:24:53.124Z,99.90
2018-08-09T18:29:56.614Z,99.90
2018-08-09T18:35:00.609Z,99.90
2018-08-09T18:40:12.868Z,99.90
2018-08-09T18:45:16.579Z,99.90
2018-08-09T18:50:22.545Z,99.90
2018-08-09T18:55:26.171Z,99.90
2018-08-09T19:00:30.482Z,99.90
2018-08-09T19:05:33.904Z,99.90
2018-08-09T19:10:41.678Z,99.90
2018-08-09T19:15:45.324Z,99.90
2018-08-09T19:20:50.042Z,99.90
2018-08-09T19:25:58.508Z,99.90
2018-08-09T19:31:07.913Z,99.90
2018-08-09T19:36:11.552Z,99.90
2018-08-09T19:41:20.770Z,99.90
2018-08-09T19:46:24.155Z,99.90
2018-08-09T19:51:28.258Z,99.90
2018-08-09T19:56:32.303Z,99.90
2018-08-09T20:01:35.963Z,99.90
2018-08-09T20:06:39.361Z,99.90
2018-08-09T20:11:50.608Z,99.90
2018-08-09T20:16:54.294Z,99.90
2018-08-09T20:21:57.769Z,99.90
2018-08-09T20:27:01.233Z,99.90
2018-08-09T20:32:04.847Z,99.90
2018-08-09T20:37:08.429Z,99.90
2018-08-09T20:42:11.897Z,99.90
2018-08-09T20:47:28.667Z,99.90
2018-08-09T20:52:32.174Z,99.90
2018-08-09T20:57:35.984Z,99.90
2018-08-09T21:02:39.497Z,99.90
2018-08-09T21:07:42.930Z,99.90
2018-08-09T21:12:46.397Z,99.90
2018-08-09T21:17:50.016Z,99.90
2018-08-09T21:22:54.044Z,99.90
2018-08-09T21:27:57.661Z,99.90
2018-08-09T21:33:01.394Z,99.90
2018-08-09T21:38:06.090Z,99.90
2018-08-09T21:43:13.425Z,99.90
2018-08-09T21:48:16.976Z,99.90
2018-08-09T21:53:20.464Z,99.90
2018-08-09T21:58:24.301Z,99.90
2018-08-09T22:03:30.156Z,99.90
2018-08-09T22:08:44.738Z,99.90
2018-08-09T22:13:53.721Z,99.90
2018-08-09T22:19:03.251Z,99.90
2018-08-09T22:24:06.978Z,99.90
2018-08-09T22:29:12.507Z,99.90
2018-08-09T22:34:16.655Z,99.90
2018-08-09T22:39:20.145Z,99.90
2018-08-09T22:44:23.714Z,99.90
2018-08-09T22:49:27.275Z,99.90
2018-08-09T22:54:30.707Z,99.90
2018-08-09T22:59:34.147Z,99.90
2018-08-09T23:04:37.668Z,99.90
2018-08-09T23:09:42.214Z,99.90
2018-08-09T23:14:45.612Z,99.90
2018-08-09T23:19:50.001Z,99.90
2018-08-09T23:24:53.432Z,99.90
2018-08-09T23:29:57.128Z,99.90
2018-08-09T23:35:00.596Z,99.90
2018-08-09T23:40:13.701Z,99.90
2018-08-09T23:45:23.979Z,99.90
2018-08-09T23:50:27.456Z,99.90
2018-08-09T23:55:32.081Z,99.90
